Report METAR

 

LIBV - Gioia Del Colle, Italy
Distance from station: SSE 15km
Dati ricevuti: 24/07/2024 01:55
Sereno
Sereno
 Vento da NNO
Vento: NNO 9 km/h
Temperatura: 24°C
P.to Rugiada: 18°C
Umidità: 69%
Pressione: 1013 hPa
Riassunto: Sereno
Visibility: superiore a 10 km
2024/07/23 23:55 LIBV 232355Z 33005KT CAVOK 24/18 Q1013
LIBD - Bari/Palese Macc, Italy
Distance from station: NNO 26km
Dati ricevuti: 24/07/2024 02:20
Sereno
Sereno
 Vento da O
Vento: O 6 km/h
Temperatura: 26°C
P.to Rugiada: 20°C
Umidità: 70%
Pressione: 1012 hPa
Riassunto: Sereno
Visibility: superiore a 10 km
2024/07/24 00:20 LIBD 240020Z 27003KT CAVOK 26/20 Q1012
LIBH - Marina Di Ginosa, Italy
Distance from station: S 53km
Dati ricevuti: 23/07/2024 23:55
DATI Obsoleti

 Vento da ONO
Vento: ONO 9 km/h
Temperatura: 28°C
Indice di Calore: 28°C
P.to Rugiada: 14°C
Umidità: 42%
Pressione: 1011 hPa
2024/07/23 21:55 LIBH 232155Z AUTO 29005KT //// 28/14 Q1011
 
LIBG - Grottaglie(Civ/A, Italy
Distance from station: SE 61km
Dati ricevuti: 23/07/2024 19:50
DATI Obsoleti
Sereno
Sereno
 Vento da NNO
Vento: NNO 15 km/h
Temperatura: 33°C
P.to Rugiada: 13°C
Umidità: 30%
Pressione: 1010 hPa
Riassunto: Sereno
Visibility: superiore a 10 km
2024/07/23 17:50 LIBG 231750Z 34008KT CAVOK 33/13 Q1010
LIBR - Brindisi/Casale, Italy
Distance from station: ESE 96km
Dati ricevuti: 24/07/2024 02:20
Sereno
Sereno
 Vento da NNO
Vento: NNO 20 km/h
Temperatura: 28°C
Indice di Calore: 31°C
P.to Rugiada: 23°C
Umidità: 74%
Pressione: 1010 hPa
Riassunto: Sereno
Visibility: superiore a 10 km
2024/07/24 00:20 LIBR 240020Z 33011KT CAVOK 28/23 Q1010
LIBA - Amendola (it-Afb, Italy
Distance from station: NO 118km
Dati ricevuti: 24/07/2024 01:55
Poco Nuvoloso
Poco Nuvoloso
 Vento da O
Vento: O 22 km/h
Temperatura: 26°C
P.to Rugiada: 21°C
Umidità: 74%
Pressione: 1012 hPa
Nuvole: Poco Nuvoloso
Visibility: 10 km
Cloud details: Poco Nuvoloso 1219 m
2024/07/23 23:55 LIBA 232355Z 28012KT 9999 FEW040 26/21 Q1012
 
LIBF - Foggia/Gino Lisa, Italy
Distance from station: ONO 126km
Dati ricevuti: 23/07/2024 22:50
DATI Obsoleti
Sereno
Sereno
 Vento da NO
Vento: NO 13 km/h
Temperatura: 28°C
Indice di Calore: 29°C
P.to Rugiada: 20°C
Umidità: 62%
Pressione: 1013 hPa
Riassunto: Sereno
Visibility: superiore a 10 km
2024/07/23 20:50 LIBF 232050Z 31007KT CAVOK 28/20 Q1013
LIBN - Lecce (it-Afb), Italy
Distance from station: SE 132km
Dati ricevuti: 24/07/2024 01:55
Sereno
Sereno
 Vento da NO
Vento: NO 9 km/h
Temperatura: 25°C
P.to Rugiada: 25°C
Umidità: 100%
Pressione: 1011 hPa
Riassunto: Sereno
Visibility: superiore a 10 km
2024/07/23 23:55 LIBN 232355Z 32005KT CAVOK 25/25 Q1011